createdAt,value
2023-03-27T00:00:42.088Z,65.92
2023-03-27T00:01:42.111Z,65.62
2023-03-27T00:02:42.212Z,65.92
2023-03-27T00:03:42.088Z,65.69
2023-03-27T00:04:42.042Z,65.80
2023-03-27T00:05:42.019Z,65.62
2023-03-27T00:06:42.013Z,65.31
2023-03-27T00:07:42.028Z,65.92
2023-03-27T00:08:41.996Z,65.72
2023-03-27T00:09:41.986Z,65.20
2023-03-27T00:10:41.976Z,65.52
2023-03-27T00:11:41.970Z,65.31
2023-03-27T00:12:41.980Z,65.44
2023-03-27T00:13:49.417Z,65.95
2023-03-27T00:14:42.965Z,65.95
2023-03-27T00:15:41.927Z,65.72
2023-03-27T00:16:41.930Z,65.31
2023-03-27T00:17:41.981Z,65.00
2023-03-27T00:18:41.894Z,65.95
2023-03-27T00:19:41.896Z,65.92
2023-03-27T00:20:41.871Z,65.95
2023-03-27T00:21:41.851Z,65.95
2023-03-27T00:22:41.895Z,65.75
2023-03-27T00:23:41.841Z,65.75
2023-03-27T00:24:41.855Z,66.16
2023-03-27T00:25:41.812Z,66.06
2023-03-27T00:26:41.810Z,65.44
2023-03-27T00:27:41.810Z,65.95
2023-03-27T00:28:41.817Z,65.75
2023-03-27T00:29:41.778Z,65.75
2023-03-27T00:30:41.789Z,66.61
2023-03-27T00:31:41.753Z,65.86
2023-03-27T00:32:41.793Z,66.81
2023-03-27T00:33:41.781Z,65.89
2023-03-27T00:34:41.723Z,65.78
2023-03-27T00:35:41.767Z,66.19
2023-03-27T00:36:41.704Z,66.30
2023-03-27T00:37:41.688Z,66.09
2023-03-27T00:38:41.682Z,66.71
2023-03-27T00:39:41.714Z,66.61
2023-03-27T00:40:41.688Z,66.30
2023-03-27T00:41:41.642Z,66.16
2023-03-27T00:42:41.627Z,66.78
2023-03-27T00:43:41.655Z,67.43
2023-03-27T00:44:41.644Z,66.99
2023-03-27T00:45:41.630Z,66.16
2023-03-27T00:46:41.654Z,66.16
2023-03-27T00:47:41.632Z,67.19
2023-03-27T00:48:41.598Z,66.37
2023-03-27T00:49:41.643Z,66.27
2023-03-27T00:50:41.563Z,67.40
2023-03-27T00:51:41.577Z,66.27
2023-03-27T00:52:41.526Z,66.16
2023-03-27T00:53:41.549Z,65.65
2023-03-27T00:54:41.500Z,66.37
2023-03-27T00:55:41.498Z,66.47
2023-03-27T00:56:41.493Z,66.06
2023-03-27T00:57:41.507Z,65.68
2023-03-27T00:58:41.469Z,66.27
2023-03-27T00:59:41.451Z,67.30
2023-03-27T01:00:41.445Z,66.16
2023-03-27T01:01:41.510Z,66.19
2023-03-27T01:02:41.552Z,66.27
2023-03-27T01:03:41.556Z,66.91
2023-03-27T01:04:41.434Z,66.81
2023-03-27T01:05:41.405Z,67.43
2023-03-27T01:06:41.378Z,66.81
2023-03-27T01:07:41.369Z,66.81
2023-03-27T01:08:42.353Z,67.30
2023-03-27T01:09:41.348Z,67.43
2023-03-27T01:10:41.372Z,67.43
2023-03-27T01:11:41.322Z,67.22
2023-03-27T01:12:41.314Z,67.22
2023-03-27T01:13:41.307Z,67.22
2023-03-27T01:14:41.281Z,67.22
2023-03-27T01:15:41.305Z,67.02
2023-03-27T01:16:41.314Z,67.43
2023-03-27T01:17:41.313Z,67.33
2023-03-27T01:18:41.265Z,67.63
2023-03-27T01:19:41.231Z,67.46
2023-03-27T01:20:41.239Z,67.33
2023-03-27T01:21:41.236Z,67.46
2023-03-27T01:22:41.239Z,67.57
2023-03-27T01:23:59.354Z,67.87
2023-03-27T01:24:42.194Z,67.97
2023-03-27T01:25:41.202Z,67.87
2023-03-27T01:26:41.161Z,67.66
2023-03-27T01:27:41.144Z,67.77
2023-03-27T01:28:41.158Z,67.87
2023-03-27T01:29:41.123Z,68.70
2023-03-27T01:30:41.112Z,68.39
2023-03-27T01:31:41.149Z,68.49
2023-03-27T01:32:41.132Z,68.39
2023-03-27T01:33:41.118Z,68.08
2023-03-27T01:34:41.067Z,68.08
2023-03-27T01:35:41.086Z,68.70
2023-03-27T01:36:41.093Z,68.73
2023-03-27T01:37:41.058Z,68.73
2023-03-27T01:38:41.031Z,68.83
2023-03-27T01:39:41.027Z,68.90
2023-03-27T01:40:41.020Z,69.55
2023-03-27T01:41:41.013Z,69.14
2023-03-27T01:42:41.034Z,68.59
2023-03-27T01:43:40.989Z,69.14
2023-03-27T01:44:44.566Z,68.83
2023-03-27T01:45:40.965Z,69.14
2023-03-27T01:46:40.979Z,69.45
2023-03-27T01:47:41.009Z,69.24
2023-03-27T01:48:41.037Z,68.83
2023-03-27T01:49:40.935Z,68.93
2023-03-27T01:50:40.918Z,68.32
2023-03-27T01:51:40.892Z,68.83
2023-03-27T01:52:40.888Z,68.42
2023-03-27T01:53:41.067Z,68.62
2023-03-27T01:54:40.870Z,68.83
2023-03-27T01:55:40.859Z,68.73
2023-03-27T01:56:40.863Z,68.62
2023-03-27T01:57:48.938Z,68.21
2023-03-27T01:58:41.871Z,67.90
2023-03-27T01:59:40.820Z,67.90
2023-03-27T02:00:51.480Z,68.11
2023-03-27T02:01:41.820Z,68.21
2023-03-27T02:02:40.818Z,68.11
2023-03-27T02:03:40.768Z,67.80
2023-03-27T02:04:40.845Z,67.80
2023-03-27T02:05:40.756Z,67.39
2023-03-27T02:06:40.742Z,67.49
2023-03-27T02:07:40.732Z,67.70
2023-03-27T02:08:40.714Z,68.01
2023-03-27T02:09:40.724Z,68.01
2023-03-27T02:10:40.725Z,67.80
2023-03-27T02:11:40.695Z,68.01
2023-03-27T02:12:40.679Z,67.80
2023-03-27T02:13:40.661Z,68.11
2023-03-27T02:14:40.661Z,67.80
2023-03-27T02:15:40.671Z,67.80
2023-03-27T02:16:40.676Z,68.01
2023-03-27T02:17:40.650Z,68.11
2023-03-27T02:18:40.606Z,68.11
2023-03-27T02:19:40.599Z,67.80
2023-03-27T02:20:40.626Z,68.32
2023-03-27T02:21:40.580Z,67.80
2023-03-27T02:22:40.574Z,68.01
2023-03-27T02:23:40.564Z,67.80
2023-03-27T02:24:40.587Z,68.01
2023-03-27T02:25:40.573Z,67.90
2023-03-27T02:26:40.529Z,67.49
2023-03-27T02:27:40.516Z,67.39
2023-03-27T02:28:40.506Z,67.49
2023-03-27T02:29:40.497Z,67.49
2023-03-27T02:30:40.519Z,67.29
2023-03-27T02:31:40.486Z,67.29
2023-03-27T02:32:40.497Z,67.70
2023-03-27T02:33:40.455Z,67.49
2023-03-27T02:34:40.450Z,67.93
2023-03-27T02:35:40.485Z,67.32
2023-03-27T02:36:40.461Z,67.21
2023-03-27T02:37:40.412Z,67.42
2023-03-27T02:38:40.397Z,67.42
2023-03-27T02:39:40.398Z,67.32
2023-03-27T02:40:40.563Z,67.66
2023-03-27T02:41:40.402Z,67.66
2023-03-27T02:42:40.394Z,67.55
2023-03-27T02:43:40.356Z,67.55
2023-03-27T02:44:47.455Z,67.55
2023-03-27T02:45:41.359Z,67.76
2023-03-27T02:46:40.315Z,67.86
2023-03-27T02:47:40.359Z,67.55
2023-03-27T02:48:40.312Z,67.35
2023-03-27T02:49:40.291Z,67.58
2023-03-27T02:50:40.277Z,67.48
2023-03-27T02:51:40.287Z,67.35
2023-03-27T02:52:40.260Z,67.58
2023-03-27T02:53:40.300Z,67.38
2023-03-27T02:54:40.249Z,67.38
2023-03-27T02:55:40.233Z,67.58
2023-03-27T02:56:40.242Z,67.38
2023-03-27T02:57:40.262Z,67.38
2023-03-27T02:58:40.190Z,67.41
2023-03-27T02:59:40.219Z,67.72
2023-03-27T03:00:40.187Z,67.61
2023-03-27T03:01:40.229Z,67.51
2023-03-27T03:02:40.250Z,67.30
2023-03-27T03:03:40.191Z,67.61
2023-03-27T03:04:40.134Z,66.79
2023-03-27T03:05:40.114Z,66.48
2023-03-27T03:06:40.140Z,66.76
2023-03-27T03:07:40.141Z,66.48
2023-03-27T03:08:40.084Z,66.27
2023-03-27T03:09:40.607Z,66.27
2023-03-27T03:10:40.062Z,65.94
2023-03-27T03:11:40.102Z,66.14
2023-03-27T03:12:40.075Z,66.04
2023-03-27T03:13:40.055Z,66.17
2023-03-27T03:14:40.034Z,65.86
2023-03-27T03:15:40.021Z,65.94
2023-03-27T03:16:40.048Z,66.04
2023-03-27T03:17:40.085Z,66.24
2023-03-27T03:18:39.980Z,65.83
2023-03-27T03:19:39.999Z,65.94
2023-03-27T03:20:39.957Z,65.73
2023-03-27T03:21:39.943Z,66.24
2023-03-27T03:22:39.983Z,65.76
2023-03-27T03:23:39.920Z,66.35
2023-03-27T03:24:39.912Z,66.17
2023-03-27T03:25:39.928Z,66.04
2023-03-27T03:26:39.890Z,65.94
2023-03-27T03:27:39.882Z,65.83
2023-03-27T03:28:39.900Z,66.17
2023-03-27T03:29:40.885Z,65.76
2023-03-27T03:30:39.884Z,66.14
2023-03-27T03:31:39.846Z,65.86
2023-03-27T03:32:39.877Z,66.38
2023-03-27T03:33:39.817Z,66.35
2023-03-27T03:34:39.840Z,66.58
2023-03-27T03:35:39.831Z,65.94
2023-03-27T03:36:39.781Z,66.27
2023-03-27T03:37:39.775Z,66.17
2023-03-27T03:38:39.760Z,66.55
2023-03-27T03:39:39.759Z,66.24
2023-03-27T03:40:39.787Z,66.24
2023-03-27T03:41:39.744Z,66.27
2023-03-27T03:42:39.760Z,66.69
2023-03-27T03:43:39.715Z,66.79
2023-03-27T03:44:39.696Z,66.07
2023-03-27T03:45:39.761Z,66.38
2023-03-27T03:46:39.734Z,66.38
2023-03-27T03:47:39.704Z,66.07
2023-03-27T03:48:39.684Z,66.38
2023-03-27T03:49:39.669Z,66.58
2023-03-27T03:50:39.638Z,67.65
2023-03-27T03:51:39.630Z,67.65
2023-03-27T03:52:39.613Z,67.44
2023-03-27T03:53:39.649Z,67.44
2023-03-27T03:54:39.628Z,67.44
2023-03-27T03:55:39.605Z,67.37
2023-03-27T03:56:39.627Z,67.47
2023-03-27T03:57:39.555Z,68.40
2023-03-27T03:58:39.551Z,67.88
2023-03-27T03:59:39.540Z,68.30
2023-03-27T04:00:39.526Z,68.71
2023-03-27T04:01:39.581Z,68.92
2023-03-27T04:02:39.570Z,68.71
2023-03-27T04:03:39.651Z,68.40
2023-03-27T04:04:39.507Z,68.71
2023-03-27T04:05:39.507Z,69.02
2023-03-27T04:06:39.490Z,68.82
2023-03-27T04:07:39.443Z,68.61
2023-03-27T04:08:39.476Z,68.71
2023-03-27T04:09:39.426Z,68.92
2023-03-27T04:10:39.433Z,69.12
2023-03-27T04:11:39.437Z,68.51
2023-03-27T04:12:39.388Z,68.92
2023-03-27T04:13:39.382Z,69.33
2023-03-27T04:14:39.370Z,69.43
2023-03-27T04:15:39.400Z,69.33
2023-03-27T04:16:39.353Z,69.12
2023-03-27T04:17:39.467Z,69.33
2023-03-27T04:18:39.516Z,69.43
2023-03-27T04:19:39.322Z,69.43
2023-03-27T04:20:39.304Z,69.33
2023-03-27T04:21:39.296Z,69.33
2023-03-27T04:22:39.282Z,69.43
2023-03-27T04:23:39.317Z,68.85
2023-03-27T04:24:39.268Z,69.02
2023-03-27T04:25:39.326Z,69.12
2023-03-27T04:26:39.239Z,68.85
2023-03-27T04:27:39.278Z,68.74
2023-03-27T04:28:39.225Z,68.85
2023-03-27T04:29:39.212Z,68.43
2023-03-27T04:30:39.209Z,68.95
2023-03-27T04:31:39.254Z,68.54
2023-03-27T04:32:39.201Z,69.26
2023-03-27T04:33:39.262Z,69.37
2023-03-27T04:34:39.159Z,69.57
2023-03-27T04:35:39.207Z,69.37
2023-03-27T04:36:39.143Z,69.26
2023-03-27T04:37:39.141Z,69.47
2023-03-27T04:38:39.195Z,69.29
2023-03-27T04:39:39.160Z,69.47
2023-03-27T04:40:39.102Z,69.40
2023-03-27T04:41:39.107Z,69.19
2023-03-27T04:42:39.086Z,68.74
2023-03-27T04:43:39.070Z,68.88
2023-03-27T04:44:39.096Z,68.57
2023-03-27T04:45:39.046Z,68.77
2023-03-27T04:46:39.116Z,68.77
2023-03-27T04:47:39.162Z,68.57
2023-03-27T04:48:39.417Z,68.98
2023-03-27T04:49:39.069Z,68.88
2023-03-27T04:50:39.023Z,68.98
2023-03-27T04:51:38.987Z,68.57
2023-03-27T04:52:38.973Z,68.26
2023-03-27T04:53:39.000Z,67.95
2023-03-27T04:54:38.948Z,68.26
2023-03-27T04:55:38.983Z,68.15
2023-03-27T04:56:38.963Z,68.77
2023-03-27T04:57:38.923Z,68.67
2023-03-27T04:58:38.912Z,69.29
2023-03-27T04:59:38.899Z,68.98
2023-03-27T05:00:38.914Z,68.98
2023-03-27T05:01:39.060Z,68.95
2023-03-27T05:02:38.924Z,69.16
2023-03-27T05:03:38.953Z,69.19
2023-03-27T05:04:38.863Z,69.37
2023-03-27T05:05:38.860Z,69.60
2023-03-27T05:06:40.559Z,69.29
2023-03-27T05:07:38.815Z,69.60
2023-03-27T05:08:38.805Z,69.19
2023-03-27T05:09:38.794Z,69.40
2023-03-27T05:10:38.778Z,69.50
2023-03-27T05:11:38.804Z,69.40
2023-03-27T05:12:38.780Z,69.50
2023-03-27T05:13:38.742Z,69.16
2023-03-27T05:14:38.732Z,68.64
2023-03-27T05:15:38.733Z,68.85
2023-03-27T05:16:38.740Z,68.98
2023-03-27T05:17:38.759Z,68.67
2023-03-27T05:18:41.975Z,68.46
2023-03-27T05:19:38.680Z,68.15
2023-03-27T05:20:38.705Z,68.98
2023-03-27T05:21:38.682Z,68.67
2023-03-27T05:22:38.683Z,68.98
2023-03-27T05:23:38.640Z,68.67
2023-03-27T05:24:38.631Z,68.36
2023-03-27T05:25:38.614Z,68.26
2023-03-27T05:26:38.706Z,68.36
2023-03-27T05:27:38.869Z,68.36
2023-03-27T05:28:38.609Z,68.77
2023-03-27T05:29:46.858Z,68.36
2023-03-27T05:30:39.619Z,68.88
2023-03-27T05:31:38.553Z,68.67
2023-03-27T05:32:38.562Z,68.60
2023-03-27T05:33:38.566Z,68.80
2023-03-27T05:34:38.527Z,68.88
2023-03-27T05:35:38.517Z,68.98
2023-03-27T05:36:38.504Z,68.98
2023-03-27T05:37:38.533Z,68.88
2023-03-27T05:38:38.524Z,68.57
2023-03-27T05:39:38.469Z,68.60
2023-03-27T05:40:38.454Z,69.12
2023-03-27T05:41:38.450Z,68.98
2023-03-27T05:42:38.434Z,69.09
2023-03-27T05:43:38.462Z,69.09
2023-03-27T05:44:38.451Z,68.57
2023-03-27T05:45:38.420Z,68.67
2023-03-27T05:46:38.454Z,68.67
2023-03-27T05:47:38.410Z,68.36
2023-03-27T05:48:38.421Z,68.67
2023-03-27T05:49:38.363Z,68.67
2023-03-27T05:50:38.361Z,68.67
2023-03-27T05:51:38.336Z,68.98
2023-03-27T05:52:39.344Z,69.19
2023-03-27T05:53:38.382Z,69.50
2023-03-27T05:54:38.340Z,68.88
2023-03-27T05:55:38.313Z,68.67
2023-03-27T05:56:38.326Z,69.09
2023-03-27T05:57:38.284Z,68.98
2023-03-27T05:58:38.269Z,69.09
2023-03-27T05:59:38.314Z,68.46
2023-03-27T06:00:38.283Z,69.40
2023-03-27T06:01:38.229Z,68.88
2023-03-27T06:02:38.251Z,68.88
2023-03-27T06:03:38.508Z,68.88
2023-03-27T06:04:38.249Z,68.67
2023-03-27T06:05:38.195Z,68.57
2023-03-27T06:06:38.215Z,68.77
2023-03-27T06:07:38.596Z,68.98
2023-03-27T06:08:38.172Z,68.77
2023-03-27T06:09:38.177Z,68.88
2023-03-27T06:10:38.143Z,68.88
2023-03-27T06:11:38.157Z,68.98
2023-03-27T06:12:38.142Z,68.46
2023-03-27T06:13:38.110Z,68.15
2023-03-27T06:14:38.106Z,68.26
2023-03-27T06:15:38.127Z,68.05
2023-03-27T06:16:38.104Z,68.15
2023-03-27T06:17:38.145Z,67.95
2023-03-27T06:18:38.074Z,68.43
2023-03-27T06:19:38.042Z,68.02
2023-03-27T06:20:38.038Z,68.05
2023-03-27T06:21:39.421Z,68.36
2023-03-27T06:22:38.019Z,67.50
2023-03-27T06:23:38.029Z,67.40
2023-03-27T06:24:38.039Z,67.71
2023-03-27T06:25:38.011Z,67.30
2023-03-27T06:26:38.019Z,67.19
2023-03-27T06:27:38.046Z,67.61
2023-03-27T06:28:37.979Z,67.50
2023-03-27T06:29:37.931Z,67.50
2023-03-27T06:30:37.929Z,67.40
2023-03-27T06:31:37.930Z,67.40
2023-03-27T06:32:37.915Z,67.82
2023-03-27T06:33:37.921Z,67.61
2023-03-27T06:34:37.924Z,67.61
2023-03-27T06:35:37.932Z,67.30
2023-03-27T06:36:37.866Z,67.58
2023-03-27T06:37:37.847Z,67.50
2023-03-27T06:38:37.875Z,67.78
2023-03-27T06:39:37.834Z,67.44
2023-03-27T06:40:37.819Z,67.65
2023-03-27T06:41:37.823Z,66.48
2023-03-27T06:42:37.797Z,66.69
2023-03-27T06:43:37.779Z,66.04
2023-03-27T06:44:37.803Z,66.35
2023-03-27T06:45:37.776Z,66.45
2023-03-27T06:46:45.052Z,66.21
2023-03-27T06:47:48.129Z,65.28
2023-03-27T06:48:38.748Z,64.15
2023-03-27T06:49:37.748Z,64.36
2023-03-27T06:50:37.712Z,64.43
2023-03-27T06:51:37.702Z,64.12
2023-03-27T06:52:37.695Z,64.15
2023-03-27T06:53:38.324Z,64.22
2023-03-27T06:54:37.723Z,64.02
2023-03-27T06:55:37.657Z,64.02
2023-03-27T06:56:37.696Z,64.12
2023-03-27T06:57:37.653Z,64.32
2023-03-27T06:58:37.626Z,63.81
2023-03-27T06:59:37.768Z,64.43
2023-03-27T07:00:37.633Z,64.50
2023-03-27T07:01:37.617Z,64.09
2023-03-27T07:02:37.634Z,64.19
2023-03-27T07:03:37.571Z,63.54
2023-03-27T07:04:37.563Z,63.57
2023-03-27T07:05:37.684Z,63.68
2023-03-27T07:06:39.644Z,63.85
2023-03-27T07:07:40.347Z,63.13
2023-03-27T07:08:37.512Z,63.34
2023-03-27T07:09:39.938Z,62.82
2023-03-27T07:10:37.887Z,63.13
2023-03-27T07:11:37.746Z,62.72
2023-03-27T07:12:37.550Z,63.03
2023-03-27T07:13:37.628Z,63.37
2023-03-27T07:14:37.625Z,63.06
2023-03-27T07:15:37.548Z,65.74
2023-03-27T07:16:37.473Z,69.01
2023-03-27T07:17:48.217Z,67.46
2023-03-27T07:18:38.408Z,65.81
2023-03-27T07:19:37.396Z,65.81
2023-03-27T07:20:37.394Z,66.22
2023-03-27T07:21:37.400Z,66.22
2023-03-27T07:22:37.362Z,65.30
2023-03-27T07:23:37.461Z,65.81
2023-03-27T07:24:37.345Z,65.68
2023-03-27T07:25:37.338Z,64.34
2023-03-27T07:26:37.365Z,64.03
2023-03-27T07:27:37.312Z,63.00
2023-03-27T07:28:37.294Z,63.10
2023-03-27T07:29:37.349Z,62.70
2023-03-27T07:30:37.282Z,62.90
2023-03-27T07:32:38.092Z,62.28
2023-03-27T07:33:37.313Z,62.41
2023-03-27T07:34:37.234Z,62.49
2023-03-27T07:35:37.255Z,62.49
2023-03-27T07:36:37.212Z,62.49
2023-03-27T07:37:38.141Z,62.59
2023-03-27T07:38:37.193Z,62.49
2023-03-27T07:39:37.189Z,62.28
2023-03-27T07:40:40.015Z,62.38
2023-03-27T07:41:37.172Z,62.18
2023-03-27T07:42:37.180Z,61.98
2023-03-27T07:43:37.181Z,61.77
2023-03-27T07:44:37.229Z,61.66
2023-03-27T07:45:37.173Z,61.53
2023-03-27T07:46:37.111Z,61.43
2023-03-27T07:47:37.158Z,61.22
2023-03-27T07:48:37.127Z,60.81
2023-03-27T07:49:39.228Z,60.71
2023-03-27T07:50:37.067Z,60.86
2023-03-27T07:51:37.059Z,60.47
2023-03-27T07:52:37.048Z,60.47
2023-03-27T07:53:37.074Z,60.58
2023-03-27T07:54:37.055Z,60.47
2023-03-27T07:55:37.009Z,60.37
2023-03-27T07:56:37.026Z,60.14
2023-03-27T07:57:46.033Z,60.35
2023-03-27T07:58:38.091Z,59.63
2023-03-27T07:59:37.147Z,60.01
2023-03-27T08:00:36.984Z,60.08
2023-03-27T08:01:36.974Z,59.70
2023-03-27T08:02:36.944Z,59.70
2023-03-27T08:03:37.079Z,59.08
2023-03-27T08:04:37.088Z,59.83
2023-03-27T08:05:36.901Z,59.93
2023-03-27T08:06:36.913Z,59.63
2023-03-27T08:07:36.892Z,59.52
2023-03-27T08:08:36.877Z,59.14
2023-03-27T08:09:36.858Z,58.62
2023-03-27T08:10:36.885Z,58.73
2023-03-27T08:11:36.836Z,58.62
2023-03-27T08:12:36.832Z,58.73
2023-03-27T08:13:36.897Z,58.62
2023-03-27T08:14:36.801Z,58.21
2023-03-27T08:15:36.802Z,58.73
2023-03-27T08:16:45.449Z,57.62
2023-03-27T08:17:36.976Z,58.01
2023-03-27T08:18:36.762Z,57.80
2023-03-27T08:19:36.755Z,57.90
2023-03-27T08:20:36.758Z,57.26
2023-03-27T08:21:36.724Z,58.01
2023-03-27T08:22:36.719Z,57.98
2023-03-27T08:23:36.700Z,57.85
2023-03-27T08:24:36.708Z,57.34
2023-03-27T08:25:36.684Z,56.90
2023-03-27T08:26:36.717Z,56.59
2023-03-27T08:27:36.696Z,56.08
2023-03-27T08:28:36.662Z,56.26
2023-03-27T08:29:36.639Z,56.05
2023-03-27T08:30:36.671Z,54.38
2023-03-27T08:31:36.657Z,54.25
2023-03-27T08:32:36.641Z,53.72
2023-03-27T08:33:36.614Z,52.49
2023-03-27T08:34:36.588Z,51.95
2023-03-27T08:35:36.781Z,52.28
2023-03-27T08:36:36.585Z,52.26
2023-03-27T08:37:36.556Z,52.05
2023-03-27T08:38:36.537Z,51.98
2023-03-27T08:39:36.544Z,52.82
2023-03-27T08:40:36.567Z,52.92
2023-03-27T08:41:36.520Z,53.03
2023-03-27T08:42:36.511Z,53.23
2023-03-27T08:43:36.508Z,53.46
2023-03-27T08:44:36.488Z,53.77
2023-03-27T08:45:36.473Z,53.46
2023-03-27T08:46:36.506Z,54.21
2023-03-27T08:47:36.508Z,54.41
2023-03-27T08:48:36.464Z,54.28
2023-03-27T08:49:36.430Z,54.15
2023-03-27T08:50:36.430Z,54.15
2023-03-27T08:51:36.407Z,54.05
2023-03-27T08:52:36.490Z,54.28
2023-03-27T08:53:37.368Z,54.28
2023-03-27T08:54:36.397Z,53.85
2023-03-27T08:55:36.366Z,53.56
2023-03-27T08:56:36.381Z,53.77
2023-03-27T08:57:36.365Z,53.46
2023-03-27T08:58:36.447Z,53.36
2023-03-27T08:59:36.315Z,53.89
2023-03-27T09:00:36.314Z,53.59
2023-03-27T09:01:36.362Z,53.69
2023-03-27T09:02:36.374Z,54.18
2023-03-27T09:03:36.464Z,52.72
2023-03-27T09:04:37.670Z,52.39
2023-03-27T09:05:36.251Z,51.51
2023-03-27T09:06:36.256Z,50.65
2023-03-27T09:07:36.227Z,50.78
2023-03-27T09:08:36.224Z,51.39
2023-03-27T09:09:36.245Z,51.29
2023-03-27T09:10:36.223Z,52.44
2023-03-27T09:11:36.188Z,51.93
2023-03-27T09:12:36.186Z,50.74
2023-03-27T09:13:36.166Z,47.86
2023-03-27T09:14:36.192Z,42.88
2023-03-27T09:15:36.141Z,41.44
2023-03-27T09:16:36.238Z,40.20
2023-03-27T09:17:36.172Z,39.77
2023-03-27T09:18:36.951Z,38.06
2023-03-27T09:19:36.106Z,38.11
2023-03-27T09:20:36.145Z,38.35
2023-03-27T09:21:36.113Z,37.33
2023-03-27T09:22:36.063Z,36.42
2023-03-27T09:23:36.059Z,34.81
2023-03-27T09:24:36.044Z,32.62
2023-03-27T09:25:36.042Z,32.03
2023-03-27T09:26:36.118Z,30.51
2023-03-27T09:27:36.025Z,29.77
2023-03-27T09:28:36.023Z,30.05
2023-03-27T09:29:36.038Z,29.60
2023-03-27T09:30:35.984Z,29.69
2023-03-27T09:31:36.033Z,28.25
2023-03-27T09:32:35.991Z,28.02
2023-03-27T09:33:35.947Z,28.16
2023-03-27T09:34:35.976Z,26.89
2023-03-27T09:35:35.939Z,27.17
2023-03-27T09:36:35.950Z,27.04
2023-03-27T09:37:37.055Z,26.81
2023-03-27T09:38:35.934Z,25.89
2023-03-27T09:39:35.898Z,24.26
2023-03-27T09:40:35.890Z,25.13
2023-03-27T09:41:35.879Z,24.81
2023-03-27T09:42:35.899Z,23.14
2023-03-27T09:43:35.854Z,23.72
2023-03-27T09:44:35.835Z,23.32
2023-03-27T09:45:35.835Z,23.56
2023-03-27T09:46:35.886Z,24.73
2023-03-27T09:47:35.850Z,26.04
2023-03-27T09:48:35.839Z,25.66
2023-03-27T09:49:35.813Z,26.40
2023-03-27T09:50:35.822Z,26.31
2023-03-27T09:51:35.779Z,27.43
2023-03-27T09:52:35.779Z,25.97
2023-03-27T09:53:35.769Z,25.71
2023-03-27T09:54:35.782Z,24.79
2023-03-27T09:55:35.737Z,25.39
2023-03-27T09:56:35.765Z,24.35
2023-03-27T09:57:35.727Z,23.75
2023-03-27T09:58:35.717Z,24.72
2023-03-27T09:59:35.719Z,25.29
2023-03-27T10:00:35.774Z,26.76
2023-03-27T10:01:35.945Z,27.62
2023-03-27T10:02:35.689Z,29.19
2023-03-27T10:03:35.701Z,30.47
2023-03-27T10:04:35.683Z,31.62
2023-03-27T10:05:35.647Z,32.49
2023-03-27T10:06:35.617Z,33.44
2023-03-27T10:07:35.614Z,35.01
2023-03-27T10:08:35.613Z,35.95
2023-03-27T10:09:35.597Z,36.58
2023-03-27T10:10:35.605Z,35.99
2023-03-27T10:11:35.576Z,34.39
2023-03-27T10:12:35.554Z,31.77
2023-03-27T10:13:35.592Z,29.79
2023-03-27T10:14:35.546Z,29.03
2023-03-27T10:15:35.558Z,28.26
2023-03-27T10:16:35.538Z,29.72
2023-03-27T10:17:35.593Z,29.90
2023-03-27T10:18:35.491Z,30.19
2023-03-27T10:19:35.499Z,30.15
2023-03-27T10:20:35.485Z,30.60
2023-03-27T10:21:35.456Z,31.76
2023-03-27T10:22:35.507Z,32.52
2023-03-27T10:23:35.470Z,33.67
2023-03-27T10:24:35.445Z,34.65
2023-03-27T10:25:35.415Z,35.70
2023-03-27T10:26:35.413Z,36.75
2023-03-27T10:27:35.432Z,37.78
2023-03-27T10:28:35.386Z,38.81
2023-03-27T10:29:35.368Z,39.42
2023-03-27T10:30:35.364Z,39.20
2023-03-27T10:31:35.407Z,38.39
2023-03-27T10:32:35.369Z,38.78
2023-03-27T10:33:35.334Z,37.76
2023-03-27T10:34:35.319Z,37.74
2023-03-27T10:35:36.713Z,37.62
2023-03-27T10:36:35.343Z,37.42
2023-03-27T10:37:35.291Z,37.34
2023-03-27T10:38:35.304Z,36.83
2023-03-27T10:39:35.312Z,37.56
2023-03-27T10:40:35.277Z,37.39
2023-03-27T10:41:35.237Z,37.41
2023-03-27T10:42:35.234Z,38.85
2023-03-27T10:43:35.234Z,38.56
2023-03-27T10:44:35.252Z,38.99
2023-03-27T10:45:35.233Z,39.42
2023-03-27T10:46:35.262Z,39.53
2023-03-27T10:47:35.242Z,40.88
2023-03-27T10:48:35.166Z,40.45
2023-03-27T10:49:35.159Z,40.33
2023-03-27T10:50:35.177Z,40.43
2023-03-27T10:51:45.422Z,40.35
2023-03-27T10:52:36.128Z,40.96
2023-03-27T10:53:35.315Z,40.96
2023-03-27T10:54:35.158Z,41.88
2023-03-27T10:55:35.126Z,41.27
2023-03-27T10:56:35.119Z,41.37
2023-03-27T10:57:35.083Z,40.78
2023-03-27T10:58:35.068Z,40.96
2023-03-27T10:59:41.425Z,41.19
2023-03-27T11:00:36.556Z,41.49
2023-03-27T11:01:35.042Z,41.39
2023-03-27T11:02:35.129Z,41.71
2023-03-27T11:03:35.057Z,42.22
2023-03-27T11:04:35.026Z,42.73
2023-03-27T11:05:35.082Z,42.14
2023-03-27T11:06:34.982Z,42.35
2023-03-27T11:07:34.963Z,42.35
2023-03-27T11:08:34.981Z,41.96
2023-03-27T11:09:34.929Z,42.36
2023-03-27T11:10:34.954Z,42.67
2023-03-27T11:11:34.917Z,42.06
2023-03-27T11:12:34.947Z,42.29
2023-03-27T11:13:34.975Z,43.00
2023-03-27T11:14:34.880Z,42.59
2023-03-27T11:15:34.903Z,41.77
2023-03-27T11:16:34.920Z,41.97
2023-03-27T11:17:34.905Z,41.65
2023-03-27T11:18:34.838Z,42.35
2023-03-27T11:19:34.860Z,42.04
2023-03-27T11:20:34.852Z,42.04
2023-03-27T11:21:34.805Z,42.04
2023-03-27T11:22:34.795Z,40.80
2023-03-27T11:23:34.793Z,41.30
2023-03-27T11:24:34.766Z,39.26
2023-03-27T11:25:34.758Z,39.55
2023-03-27T11:26:34.778Z,40.69
2023-03-27T11:27:34.742Z,39.47
2023-03-27T11:28:34.792Z,39.78
2023-03-27T11:29:34.718Z,39.57
2023-03-27T11:30:34.709Z,39.98
2023-03-27T11:31:34.766Z,39.96
2023-03-27T11:32:34.706Z,40.47
2023-03-27T11:33:34.670Z,40.45
2023-03-27T11:34:34.724Z,39.64
2023-03-27T11:35:34.703Z,39.03
2023-03-27T11:36:34.689Z,38.49
2023-03-27T11:37:34.659Z,38.49
2023-03-27T11:38:34.643Z,38.99
2023-03-27T11:39:34.612Z,38.60
2023-03-27T11:40:34.607Z,38.48
2023-03-27T11:41:34.623Z,38.48
2023-03-27T11:42:34.624Z,37.88
2023-03-27T11:43:34.590Z,37.48
2023-03-27T11:44:34.585Z,38.90
2023-03-27T11:45:34.553Z,38.38
2023-03-27T11:46:34.614Z,38.78
2023-03-27T11:47:34.664Z,37.75
2023-03-27T11:48:34.541Z,37.54
2023-03-27T11:49:34.524Z,36.82
2023-03-27T11:50:34.535Z,37.84
2023-03-27T11:51:34.492Z,37.61
2023-03-27T11:52:34.471Z,37.02
2023-03-27T11:53:34.507Z,37.43
2023-03-27T11:54:34.458Z,37.45
2023-03-27T11:55:34.464Z,38.56
2023-03-27T11:56:34.456Z,39.40
2023-03-27T11:57:34.424Z,39.09
2023-03-27T11:58:34.413Z,39.50
2023-03-27T11:59:34.388Z,40.53
2023-03-27T12:00:34.416Z,40.21
2023-03-27T12:01:34.415Z,40.30
2023-03-27T12:02:34.521Z,39.80
2023-03-27T12:03:34.436Z,39.90
2023-03-27T12:04:34.362Z,39.31
2023-03-27T12:05:34.326Z,40.12
2023-03-27T12:06:34.332Z,40.05
2023-03-27T12:07:37.087Z,40.45
2023-03-27T12:08:34.310Z,40.98
2023-03-27T12:09:34.290Z,40.78
2023-03-27T12:10:34.457Z,39.37
2023-03-27T12:11:34.278Z,40.41
2023-03-27T12:12:34.255Z,40.42
2023-03-27T12:13:41.261Z,41.14
2023-03-27T12:14:40.799Z,40.85
2023-03-27T12:15:35.229Z,41.26
2023-03-27T12:16:34.237Z,41.97
2023-03-27T12:17:34.303Z,42.20
2023-03-27T12:18:36.448Z,42.61
2023-03-27T12:19:38.592Z,42.41
2023-03-27T12:20:34.170Z,41.69
2023-03-27T12:21:34.147Z,41.88
2023-03-27T12:22:34.143Z,41.75
2023-03-27T12:23:34.196Z,41.04
2023-03-27T12:24:36.027Z,40.71
2023-03-27T12:25:40.903Z,41.53
2023-03-27T12:26:36.995Z,41.22
2023-03-27T12:27:34.098Z,41.53
2023-03-27T12:28:34.078Z,42.14
2023-03-27T12:29:34.101Z,41.94
2023-03-27T12:30:34.086Z,42.35
2023-03-27T12:31:34.556Z,41.73
2023-03-27T12:32:34.070Z,41.83
2023-03-27T12:33:34.082Z,42.14
2023-03-27T12:34:34.016Z,41.63
2023-03-27T12:35:34.074Z,42.02
2023-03-27T12:36:33.986Z,41.20
2023-03-27T12:37:33.980Z,41.00
2023-03-27T12:38:33.979Z,41.61
2023-03-27T12:39:33.953Z,41.08
2023-03-27T12:40:33.974Z,40.88
2023-03-27T12:41:33.948Z,41.41
2023-03-27T12:42:33.930Z,41.10
2023-03-27T12:43:34.915Z,41.33
2023-03-27T12:44:33.902Z,41.73
2023-03-27T12:45:38.742Z,41.42
2023-03-27T12:46:34.918Z,40.61
2023-03-27T12:47:33.909Z,40.61
2023-03-27T12:48:33.884Z,39.69
2023-03-27T12:49:46.314Z,40.73
2023-03-27T12:50:34.876Z,40.92
2023-03-27T12:51:33.835Z,40.63
2023-03-27T12:52:33.812Z,41.77
2023-03-27T12:53:33.805Z,41.47